EJA265 KPDK-KPBI
Flight info
| Callsign | EJA265 |
|---|---|
| Flight time | N/A |
| Altitude | 41000 |
| Route | SOONE WALET ZPLEN VUUDU1 |
| Aircraft | CL60/M-SADE3FGHIJ1J3J4J7P2RWXY/HB1D1 |
Departure
| Time | 2026-04-23 00:32 |
|---|---|
| Airport | DeKalb Peachtree Airport (KPDK) |
Arrival
| Time | N/A |
|---|---|
| Airport | Palm Beach International Airport (KPBI) |
| Time | Latitude | Longitude | Altitude | Speed | Heading |
|---|---|---|---|---|---|
| 2026-04-23 00:10 | 33.88083 | -84.30189 | 982 ft | 0 kts | 277° |
| 2026-04-23 00:29 | 33.88084 | -84.30193 | 982 ft | 4 kts | 277° |
| 2026-04-23 00:29 | 33.88109 | -84.30203 | 982 ft | 8 kts | 22° |
| 2026-04-23 00:29 | 33.88164 | -84.30133 | 980 ft | 13 kts | 90° |
| 2026-04-23 00:30 | 33.88197 | -84.30057 | 979 ft | 10 kts | 19° |
| 2026-04-23 00:30 | 33.88322 | -84.30006 | 981 ft | 23 kts | 20° |
| 2026-04-23 00:30 | 33.88452 | -84.29942 | 980 ft | 11 kts | 51° |
| 2026-04-23 00:30 | 33.88422 | -84.29792 | 973 ft | 16 kts | 111° |
| 2026-04-23 00:31 | 33.88373 | -84.29723 | 969 ft | 10 kts | 192° |
| 2026-04-23 00:31 | 33.88348 | -84.29734 | 968 ft | 15 kts | 201° |
| 2026-04-23 00:31 | 33.87933 | -84.29919 | 972 ft | 116 kts | 200° |
| 2026-04-23 00:31 | 33.86952 | -84.30363 | 1325 ft | 172 kts | 201° |
| 2026-04-23 00:32 | 33.85836 | -84.30827 | 2440 ft | 178 kts | 201° |
| 2026-04-23 00:32 | 33.84703 | -84.31350 | 3576 ft | 181 kts | 202° |
| 2026-04-23 00:32 | 33.83469 | -84.31920 | 4288 ft | 206 kts | 203° |
| 2026-04-23 00:32 | 33.82012 | -84.32617 | 4768 ft | 241 kts | 200° |
| 2026-04-23 00:33 | 33.80294 | -84.32844 | 5669 ft | 259 kts | 176° |
| 2026-04-23 00:33 | 33.78470 | -84.32545 | 6683 ft | 273 kts | 172° |
| 2026-04-23 00:33 | 33.76644 | -84.31980 | 7826 ft | 281 kts | 167° |
| 2026-04-23 00:33 | 33.74723 | -84.31576 | 8939 ft | 285 kts | 174° |
| 2026-04-23 00:34 | 33.72753 | -84.31287 | 9956 ft | 292 kts | 175° |
| 2026-04-23 00:34 | 33.70730 | -84.30993 | 10984 ft | 298 kts | 174° |
| 2026-04-23 00:34 | 33.68663 | -84.30663 | 11968 ft | 305 kts | 174° |
| 2026-04-23 00:34 | 33.66566 | -84.30322 | 13003 ft | 310 kts | 174° |
| 2026-04-23 00:35 | 33.64433 | -84.29978 | 14015 ft | 316 kts | 174° |
| 2026-04-23 00:35 | 33.62237 | -84.29614 | 15006 ft | 324 kts | 173° |
| 2026-04-23 00:35 | 33.59989 | -84.29244 | 16019 ft | 331 kts | 173° |
| 2026-04-23 00:35 | 33.57612 | -84.28853 | 16593 ft | 353 kts | 173° |
| 2026-04-23 00:36 | 33.55144 | -84.28444 | 17282 ft | 368 kts | 172° |
| 2026-04-23 00:36 | 33.52571 | -84.28016 | 18119 ft | 377 kts | 172° |
| 2026-04-23 00:36 | 33.49961 | -84.27581 | 19016 ft | 382 kts | 172° |
| 2026-04-23 00:36 | 33.47317 | -84.27139 | 19863 ft | 387 kts | 172° |
| 2026-04-23 00:37 | 33.44664 | -84.26696 | 20657 ft | 392 kts | 172° |
| 2026-04-23 00:37 | 33.41941 | -84.26241 | 21432 ft | 397 kts | 172° |
| 2026-04-23 00:37 | 33.39217 | -84.25784 | 22152 ft | 402 kts | 172° |
| 2026-04-23 00:37 | 33.36408 | -84.25314 | 22884 ft | 406 kts | 172° |
| 2026-04-23 00:38 | 33.33592 | -84.24842 | 23570 ft | 412 kts | 172° |
| 2026-04-23 00:38 | 33.30770 | -84.24370 | 24252 ft | 416 kts | 172° |
| 2026-04-23 00:38 | 33.27887 | -84.23887 | 24927 ft | 420 kts | 173° |
| 2026-04-23 00:38 | 33.24965 | -84.23398 | 25585 ft | 425 kts | 173° |
| 2026-04-23 00:39 | 33.22017 | -84.22904 | 26213 ft | 430 kts | 173° |
| 2026-04-23 00:39 | 33.19070 | -84.22411 | 26816 ft | 434 kts | 172° |
| 2026-04-23 00:39 | 33.16044 | -84.21905 | 27413 ft | 439 kts | 172° |
| 2026-04-23 00:39 | 33.13008 | -84.21397 | 27984 ft | 443 kts | 172° |
| 2026-04-23 00:40 | 33.09949 | -84.20887 | 28539 ft | 447 kts | 172° |
| 2026-04-23 00:40 | 33.06864 | -84.20170 | 29134 ft | 450 kts | 163° |
| 2026-04-23 00:40 | 33.03921 | -84.18974 | 29806 ft | 450 kts | 160° |
| 2026-04-23 00:40 | 33.00975 | -84.17747 | 30531 ft | 448 kts | 160° |
| 2026-04-23 00:41 | 32.98012 | -84.16519 | 31284 ft | 444 kts | 160° |
| 2026-04-23 00:41 | 32.95118 | -84.15321 | 31986 ft | 442 kts | 160° |
| 2026-04-23 00:41 | 32.92239 | -84.14131 | 32657 ft | 440 kts | 160° |
| 2026-04-23 00:41 | 32.89346 | -84.12936 | 33331 ft | 438 kts | 160° |
| 2026-04-23 00:42 | 32.86464 | -84.11747 | 33970 ft | 437 kts | 160° |
| 2026-04-23 00:42 | 32.83582 | -84.10558 | 34581 ft | 436 kts | 161° |
| 2026-04-23 00:42 | 32.80723 | -84.09380 | 35170 ft | 435 kts | 161° |
| 2026-04-23 00:42 | 32.77878 | -84.08209 | 35669 ft | 435 kts | 161° |
| 2026-04-23 00:43 | 32.75002 | -84.07027 | 36146 ft | 434 kts | 161° |
| 2026-04-23 00:43 | 32.72181 | -84.05867 | 36585 ft | 434 kts | 161° |
| 2026-04-23 00:43 | 32.69310 | -84.04688 | 37008 ft | 434 kts | 161° |
| 2026-04-23 00:43 | 32.66441 | -84.03511 | 37378 ft | 435 kts | 161° |
| 2026-04-23 00:44 | 32.63617 | -84.02354 | 37729 ft | 435 kts | 161° |
| 2026-04-23 00:44 | 32.60741 | -84.01176 | 38079 ft | 435 kts | 162° |
| 2026-04-23 00:44 | 32.57872 | -84.00001 | 38420 ft | 435 kts | 162° |
| 2026-04-23 00:44 | 32.55032 | -83.98840 | 38731 ft | 435 kts | 162° |
| 2026-04-23 00:45 | 32.52156 | -83.97664 | 39030 ft | 435 kts | 162° |
| 2026-04-23 00:45 | 32.49310 | -83.96501 | 39316 ft | 435 kts | 162° |
| 2026-04-23 00:45 | 32.46458 | -83.95337 | 39650 ft | 435 kts | 162° |
| 2026-04-23 00:45 | 32.43616 | -83.94178 | 39936 ft | 434 kts | 162° |
| 2026-04-23 00:46 | 32.40759 | -83.93014 | 40206 ft | 434 kts | 163° |
| 2026-04-23 00:46 | 32.37899 | -83.91848 | 40465 ft | 434 kts | 163° |
| 2026-04-23 00:46 | 32.35032 | -83.90744 | 40710 ft | 433 kts | 165° |
| 2026-04-23 00:46 | 32.32167 | -83.89716 | 40907 ft | 433 kts | 165° |
| 2026-04-23 00:47 | 32.29268 | -83.88676 | 41082 ft | 433 kts | 166° |
| 2026-04-23 00:47 | 32.23459 | -83.86595 | 41175 ft | 440 kts | 166° |
| 2026-04-23 00:48 | 32.17547 | -83.84480 | 41177 ft | 449 kts | 166° |
| 2026-04-23 00:48 | 32.11514 | -83.82323 | 41173 ft | 457 kts | 166° |
| 2026-04-23 00:49 | 32.05358 | -83.80125 | 41175 ft | 465 kts | 166° |
| 2026-04-23 00:49 | 31.99116 | -83.77898 | 41178 ft | 471 kts | 166° |
| 2026-04-23 00:50 | 31.92810 | -83.75652 | 41181 ft | 476 kts | 166° |
| 2026-04-23 00:50 | 31.86446 | -83.73387 | 41185 ft | 480 kts | 166° |
| 2026-04-23 00:51 | 31.80028 | -83.71107 | 41187 ft | 481 kts | 166° |
| 2026-04-23 00:51 | 31.73638 | -83.68839 | 41187 ft | 480 kts | 166° |
| 2026-04-23 00:52 | 31.67270 | -83.66546 | 41188 ft | 480 kts | 165° |
| 2026-04-23 00:52 | 31.60914 | -83.64098 | 41188 ft | 479 kts | 165° |
| 2026-04-23 00:53 | 31.54550 | -83.61651 | 41189 ft | 479 kts | 165° |
| 2026-04-23 00:53 | 31.48197 | -83.59213 | 41190 ft | 480 kts | 165° |
| 2026-04-23 00:54 | 31.41877 | -83.56792 | 41190 ft | 480 kts | 165° |
| 2026-04-23 00:54 | 31.35541 | -83.54370 | 41191 ft | 480 kts | 165° |
| 2026-04-23 00:55 | 31.29182 | -83.51942 | 41190 ft | 479 kts | 165° |
| 2026-04-23 00:55 | 31.22860 | -83.49532 | 41189 ft | 479 kts | 165° |
| 2026-04-23 00:56 | 31.16487 | -83.47107 | 41186 ft | 479 kts | 165° |
| 2026-04-23 00:56 | 31.10157 | -83.44701 | 41182 ft | 479 kts | 165° |
| 2026-04-23 00:57 | 31.03807 | -83.42292 | 41173 ft | 479 kts | 165° |
| 2026-04-23 00:57 | 30.97492 | -83.39899 | 41175 ft | 478 kts | 165° |
| 2026-04-23 00:58 | 30.91171 | -83.37508 | 41167 ft | 478 kts | 166° |
| 2026-04-23 00:58 | 30.84835 | -83.35113 | 41165 ft | 477 kts | 166° |
| 2026-04-23 00:59 | 30.78527 | -83.32733 | 41165 ft | 477 kts | 166° |
| 2026-04-23 00:59 | 30.72240 | -83.30359 | 41164 ft | 477 kts | 166° |
| 2026-04-23 01:00 | 30.66087 | -83.27275 | 41162 ft | 481 kts | 159° |
| 2026-04-23 01:00 | 30.60062 | -83.24017 | 41164 ft | 481 kts | 159° |
| 2026-04-23 01:01 | 30.53978 | -83.20735 | 41164 ft | 481 kts | 159° |
| 2026-04-23 01:01 | 30.47928 | -83.17478 | 41163 ft | 481 kts | 159° |
| 2026-04-23 01:02 | 30.41870 | -83.14223 | 41170 ft | 480 kts | 159° |
| 2026-04-23 01:02 | 30.35798 | -83.10967 | 41177 ft | 480 kts | 159° |
| 2026-04-23 01:03 | 30.29737 | -83.07721 | 41177 ft | 481 kts | 159° |
| 2026-04-23 01:03 | 30.23656 | -83.04469 | 41176 ft | 481 kts | 159° |
| 2026-04-23 01:04 | 30.17595 | -83.01234 | 41175 ft | 481 kts | 159° |
| 2026-04-23 01:04 | 30.08462 | -82.96367 | 41182 ft | 480 kts | 160° |